sensor_id;sensor_type;location;lat;lon;timestamp;pressure;altitude;pressure_sealevel;temperature;humidity
53868;BME280;41577;47.470;19.080;2023-01-26T00:00:05;100991.75;;;2.49;100.00
53868;BME280;41577;47.470;19.080;2023-01-26T00:00:17;100989.94;;;2.50;100.00
53868;BME280;41577;47.470;19.080;2023-01-26T00:00:29;100991.63;;;2.51;100.00
53868;BME280;41577;47.470;19.080;2023-01-26T00:00:41;100987.19;;;2.51;100.00
53868;BME280;41577;47.470;19.080;2023-01-26T00:00:54;100976.88;;;2.48;100.00
53868;BME280;41577;47.470;19.080;2023-01-26T00:01:09;100981.94;;;2.51;100.00
53868;BME280;41577;47.470;19.080;2023-01-26T00:01:21;100981.09;;;2.51;100.00
53868;BME280;41577;47.470;19.080;2023-01-26T00:01:32;100987.19;;;2.51;100.00
53868;BME280;41577;47.470;19.080;2023-01-26T00:01:44;100982.88;;;2.50;100.00
53868;BME280;41577;47.470;19.080;2023-01-26T00:01:55;100985.63;;;2.49;100.00
53868;BME280;41577;47.470;19.080;2023-01-26T00:02:06;100986.47;;;2.49;100.00
53868;BME280;41577;47.470;19.080;2023-01-26T00:02:18;100988.28;;;2.49;100.00
53868;BME280;41577;47.470;19.080;2023-01-26T00:02:29;100982.13;;;2.48;100.00
53868;BME280;41577;47.470;19.080;2023-01-26T00:02:43;100981.19;;;2.49;100.00
53868;BME280;41577;47.470;19.080;2023-01-26T00:02:53;100984.91;;;2.47;100.00
53868;BME280;41577;47.470;19.080;2023-01-26T00:03:05;100982.28;;;2.47;100.00
53868;BME280;41577;47.470;19.080;2023-01-26T00:03:19;100983.94;;;2.48;100.00
53868;BME280;41577;47.470;19.080;2023-01-26T00:03:32;100978.81;;;2.46;100.00
53868;BME280;41577;47.470;19.080;2023-01-26T00:03:43;100977.13;;;2.45;100.00
53868;BME280;41577;47.470;19.080;2023-01-26T00:03:55;100977.94;;;2.46;100.00
53868;BME280;41577;47.470;19.080;2023-01-26T00:04:08;100978.31;;;2.53;100.00
53868;BME280;41577;47.470;19.080;2023-01-26T00:04:19;100983.59;;;2.53;100.00
53868;BME280;41577;47.470;19.080;2023-01-26T00:04:30;100982.50;;;2.55;100.00
53868;BME280;41577;47.470;19.080;2023-01-26T00:04:43;100980.72;;;2.56;100.00
53868;BME280;41577;47.470;19.080;2023-01-26T00:04:56;100982.50;;;2.55;100.00
53868;BME280;41577;47.470;19.080;2023-01-26T00:05:08;100974.75;;;2.54;100.00
53868;BME280;41577;47.470;19.080;2023-01-26T00:05:20;100978.19;;;2.54;100.00
53868;BME280;41577;47.470;19.080;2023-01-26T00:05:31;100981.78;;;2.53;100.00
53868;BME280;41577;47.470;19.080;2023-01-26T00:05:46;100981.09;;;2.51;100.00
53868;BME280;41577;47.470;19.080;2023-01-26T00:06:02;100980.38;;;2.49;100.00
53868;BME280;41577;47.470;19.080;2023-01-26T00:06:15;100982.03;;;2.50;100.00
53868;BME280;41577;47.470;19.080;2023-01-26T00:06:26;100981.94;;;2.51;100.00
53868;BME280;41577;47.470;19.080;2023-01-26T00:06:38;100978.44;;;2.51;100.00
53868;BME280;41577;47.470;19.080;2023-01-26T00:06:49;100974.94;;;2.50;100.00
53868;BME280;41577;47.470;19.080;2023-01-26T00:07:04;100980.13;;;2.52;100.00
53868;BME280;41577;47.470;19.080;2023-01-26T00:07:15;100981.09;;;2.51;100.00
53868;BME280;41577;47.470;19.080;2023-01-26T00:07:29;100982.03;;;2.50;100.00
53868;BME280;41577;47.470;19.080;2023-01-26T00:07:40;100976.75;;;2.50;100.00
53868;BME280;41577;47.470;19.080;2023-01-26T00:07:51;100982.13;;;2.48;100.00
53868;BME280;41577;47.470;19.080;2023-01-26T00:08:03;100975.19;;;2.47;100.00
53868;BME280;41577;47.470;19.080;2023-01-26T00:08:16;100984.09;;;2.46;100.00
53868;BME280;41577;47.470;19.080;2023-01-26T00:08:27;100971.25;;;2.42;100.00
53868;BME280;41577;47.470;19.080;2023-01-26T00:08:39;100978.09;;;2.44;100.00
53868;BME280;41577;47.470;19.080;2023-01-26T00:08:51;100973.75;;;2.43;100.00
53868;BME280;41577;47.470;19.080;2023-01-26T00:09:03;100979.03;;;2.43;100.00
53868;BME280;41577;47.470;19.080;2023-01-26T00:09:15;100977.47;;;2.41;100.00
53868;BME280;41577;47.470;19.080;2023-01-26T00:09:26;100979.28;;;2.40;100.00
53868;BME280;41577;47.470;19.080;2023-01-26T00:09:39;100977.59;;;2.39;100.00
53868;BME280;41577;47.470;19.080;2023-01-26T00:09:50;100975.81;;;2.40;100.00
53868;BME280;41577;47.470;19.080;2023-01-26T00:10:01;100977.59;;;2.39;100.00
53868;BME280;41577;47.470;19.080;2023-01-26T00:10:13;100974.22;;;2.37;100.00
53868;BME280;41577;47.470;19.080;2023-01-26T00:10:24;100976.84;;;2.37;100.00
53868;BME280;41577;47.470;19.080;2023-01-26T00:10:35;100976.84;;;2.37;100.00
53868;BME280;41577;47.470;19.080;2023-01-26T00:10:46;100972.56;;;2.36;100.00
53868;BME280;41577;47.470;19.080;2023-01-26T00:11:02;100977.84;;;2.36;100.00
53868;BME280;41577;47.470;19.080;2023-01-26T00:11:15;100977.00;;;2.36;100.00
53868;BME280;41577;47.470;19.080;2023-01-26T00:11:28;100977.84;;;2.36;100.00
53868;BME280;41577;47.470;19.080;2023-01-26T00:11:38;100973.53;;;2.35;100.00
53868;BME280;41577;47.470;19.080;2023-01-26T00:11:49;100978.66;;;2.37;100.00
53868;BME280;41577;47.470;19.080;2023-01-26T00:12:00;100973.38;;;2.37;100.00
53868;BME280;41577;47.470;19.080;2023-01-26T00:12:11;100974.38;;;2.36;100.00
53868;BME280;41577;47.470;19.080;2023-01-26T00:12:23;100971.94;;;2.33;100.00
53868;BME280;41577;47.470;19.080;2023-01-26T00:12:34;100976.03;;;2.37;100.00
53868;BME280;41577;47.470;19.080;2023-01-26T00:12:45;100977.84;;;2.36;100.00
53868;BME280;41577;47.470;19.080;2023-01-26T00:12:56;100966.66;;;2.33;100.00
53868;BME280;41577;47.470;19.080;2023-01-26T00:13:09;100975.09;;;2.38;100.00
53868;BME280;41577;47.470;19.080;2023-01-26T00:13:21;100974.22;;;2.37;100.00
53868;BME280;41577;47.470;19.080;2023-01-26T00:13:33;100970.75;;;2.37;100.00
53868;BME280;41577;47.470;19.080;2023-01-26T00:13:45;100974.94;;;2.39;100.00
53868;BME280;41577;47.470;19.080;2023-01-26T00:13:57;100974.22;;;2.37;100.00
53868;BME280;41577;47.470;19.080;2023-01-26T00:14:09;100975.09;;;2.38;100.00
53868;BME280;41577;47.470;19.080;2023-01-26T00:14:20;100970.75;;;2.37;100.00
53868;BME280;41577;47.470;19.080;2023-01-26T00:14:31;100974.22;;;2.37;100.00
53868;BME280;41577;47.470;19.080;2023-01-26T00:14:44;100971.47;;;2.39;100.00
53868;BME280;41577;47.470;19.080;2023-01-26T00:14:55;100968.00;;;2.38;100.00
53868;BME280;41577;47.470;19.080;2023-01-26T00:15:06;100971.47;;;2.39;100.00
53868;BME280;41577;47.470;19.080;2023-01-26T00:15:17;100969.81;;;2.38;100.00
53868;BME280;41577;47.470;19.080;2023-01-26T00:15:28;100973.28;;;2.38;100.00
53868;BME280;41577;47.470;19.080;2023-01-26T00:15:39;100974.13;;;2.39;100.00
53868;BME280;41577;47.470;19.080;2023-01-26T00:15:51;100970.66;;;2.38;100.00
53868;BME280;41577;47.470;19.080;2023-01-26T00:16:03;100973.28;;;2.38;100.00
53868;BME280;41577;47.470;19.080;2023-01-26T00:16:15;100968.94;;;2.37;100.00
53868;BME280;41577;47.470;19.080;2023-01-26T00:16:27;100970.66;;;2.38;100.00
53868;BME280;41577;47.470;19.080;2023-01-26T00:16:38;100971.59;;;2.37;100.00
53868;BME280;41577;47.470;19.080;2023-01-26T00:16:50;100970.66;;;2.38;100.00
53868;BME280;41577;47.470;19.080;2023-01-26T00:17:01;100969.19;;;2.34;100.00
53868;BME280;41577;47.470;19.080;2023-01-26T00:17:14;100974.22;;;2.37;100.00
53868;BME280;41577;47.470;19.080;2023-01-26T00:17:25;100973.38;;;2.37;100.00
53868;BME280;41577;47.470;19.080;2023-01-26T00:17:36;100973.53;;;2.35;100.00
53868;BME280;41577;47.470;19.080;2023-01-26T00:17:48;100966.56;;;2.34;100.00
53868;BME280;41577;47.470;19.080;2023-01-26T00:17:58;100976.03;;;2.37;100.00
53868;BME280;41577;47.470;19.080;2023-01-26T00:18:11;100966.47;;;2.36;100.00
53868;BME280;41577;47.470;19.080;2023-01-26T00:18:22;100973.53;;;2.35;100.00
53868;BME280;41577;47.470;19.080;2023-01-26T00:18:33;100969.91;;;2.36;100.00
53868;BME280;41577;47.470;19.080;2023-01-26T00:18:45;100975.31;;;2.35;100.00
53868;BME280;41577;47.470;19.080;2023-01-26T00:18:59;100979.63;;;2.36;100.00
53868;BME280;41577;47.470;19.080;2023-01-26T00:19:10;100972.66;;;2.35;100.00
53868;BME280;41577;47.470;19.080;2023-01-26T00:19:21;100977.09;;;2.34;100.00
53868;BME280;41577;47.470;19.080;2023-01-26T00:19:32;100970.16;;;2.33;100.00
53868;BME280;41577;47.470;19.080;2023-01-26T00:19:44;100969.31;;;2.33;100.00
53868;BME280;41577;47.470;19.080;2023-01-26T00:20:04;100978.19;;;2.32;100.00
53868;BME280;41577;47.470;19.080;2023-01-26T00:20:15;100967.91;;;2.28;100.00
53868;BME280;41577;47.470;19.080;2023-01-26T00:20:26;100966.81;;;2.31;100.00
53868;BME280;41577;47.470;19.080;2023-01-26T00:20:38;100976.38;;;2.32;100.00
53868;BME280;41577;47.470;19.080;2023-01-26T00:20:54;100963.34;;;2.30;100.00
53868;BME280;41577;47.470;19.080;2023-01-26T00:21:08;100974.72;;;2.31;100.00
53868;BME280;41577;47.470;19.080;2023-01-26T00:21:22;100966.09;;;2.29;100.00
53868;BME280;41577;47.470;19.080;2023-01-26T00:21:34;100965.00;;;2.32;100.00
53868;BME280;41577;47.470;19.080;2023-01-26T00:21:45;100969.44;;;2.31;100.00
53868;BME280;41577;47.470;19.080;2023-01-26T00:21:56;100965.00;;;2.32;100.00
53868;BME280;41577;47.470;19.080;2023-01-26T00:22:08;100963.44;;;2.29;100.00
53868;BME280;41577;47.470;19.080;2023-01-26T00:22:19;100974.72;;;2.31;100.00
53868;BME280;41577;47.470;19.080;2023-01-26T00:22:30;100969.44;;;2.31;100.00
53868;BME280;41577;47.470;19.080;2023-01-26T00:22:41;100967.75;;;2.30;100.00
53868;BME280;41577;47.470;19.080;2023-01-26T00:22:54;100964.19;;;2.31;100.00
53868;BME280;41577;47.470;19.080;2023-01-26T00:23:06;100972.81;;;2.33;100.00
53868;BME280;41577;47.470;19.080;2023-01-26T00:23:18;100970.28;;;2.32;100.00
53868;BME280;41577;47.470;19.080;2023-01-26T00:23:36;100970.28;;;2.32;100.00
53868;BME280;41577;47.470;19.080;2023-01-26T00:23:48;100972.81;;;2.33;100.00
53868;BME280;41577;47.470;19.080;2023-01-26T00:23:59;100958.28;;;2.27;100.00
53868;BME280;41577;47.470;19.080;2023-01-26T00:24:10;100962.38;;;2.32;100.00
53868;BME280;41577;47.470;19.080;2023-01-26T00:24:25;100965.84;;;2.32;100.00
53868;BME280;41577;47.470;19.080;2023-01-26T00:24:37;100970.28;;;2.32;100.00
53868;BME280;41577;47.470;19.080;2023-01-26T00:24:48;100966.81;;;2.31;100.00
53868;BME280;41577;47.470;19.080;2023-01-26T00:24:59;100968.63;;;2.30;100.00
53868;BME280;41577;47.470;19.080;2023-01-26T00:25:10;100965.25;;;2.28;100.00
53868;BME280;41577;47.470;19.080;2023-01-26T00:25:21;100971.25;;;2.30;100.00
53868;BME280;41577;47.470;19.080;2023-01-26T00:25:36;100967.75;;;2.30;100.00
53868;BME280;41577;47.470;19.080;2023-01-26T00:25:47;100967.75;;;2.30;100.00
53868;BME280;41577;47.470;19.080;2023-01-26T00:25:58;100959.84;;;2.30;100.00
53868;BME280;41577;47.470;19.080;2023-01-26T00:26:12;100965.25;;;2.28;100.00
53868;BME280;41577;47.470;19.080;2023-01-26T00:26:24;100960.19;;;2.25;100.00
53868;BME280;41577;47.470;19.080;2023-01-26T00:26:37;100963.34;;;2.30;100.00
53868;BME280;41577;47.470;19.080;2023-01-26T00:26:49;100963.34;;;2.30;100.00
53868;BME280;41577;47.470;19.080;2023-01-26T00:27:02;100973.03;;;2.30;100.00
53868;BME280;41577;47.470;19.080;2023-01-26T00:27:13;100964.19;;;2.31;100.00
53868;BME280;41577;47.470;19.080;2023-01-26T00:27:24;100965.13;;;2.30;100.00
53868;BME280;41577;47.470;19.080;2023-01-26T00:27:35;100960.72;;;2.30;100.00
53868;BME280;41577;47.470;19.080;2023-01-26T00:27:46;100965.97;;;2.30;100.00
53868;BME280;41577;47.470;19.080;2023-01-26T00:27:57;100964.28;;;2.29;100.00
53868;BME280;41577;47.470;19.080;2023-01-26T00:28:08;100962.47;;;2.30;100.00
53868;BME280;41577;47.470;19.080;2023-01-26T00:28:20;100961.53;;;2.31;100.00
53868;BME280;41577;47.470;19.080;2023-01-26T00:28:32;100964.19;;;2.31;100.00
53868;BME280;41577;47.470;19.080;2023-01-26T00:28:44;100964.19;;;2.31;100.00
53868;BME280;41577;47.470;19.080;2023-01-26T00:28:56;100967.66;;;2.32;100.00
53868;BME280;41577;47.470;19.080;2023-01-26T00:29:09;100961.53;;;2.31;100.00
53868;BME280;41577;47.470;19.080;2023-01-26T00:29:22;100963.34;;;2.30;100.00
53868;BME280;41577;47.470;19.080;2023-01-26T00:29:34;100955.44;;;2.30;100.00
53868;BME280;41577;47.470;19.080;2023-01-26T00:29:45;100968.38;;;2.34;100.00
53868;BME280;41577;47.470;19.080;2023-01-26T00:29:57;100966.66;;;2.33;100.00
53868;BME280;41577;47.470;19.080;2023-01-26T00:30:09;100957.94;;;2.32;100.00
53868;BME280;41577;47.470;19.080;2023-01-26T00:30:21;100964.03;;;2.33;100.00
53868;BME280;41577;47.470;19.080;2023-01-26T00:30:34;100956.13;;;2.33;100.00
53868;BME280;41577;47.470;19.080;2023-01-26T00:30:46;100962.25;;;2.33;100.00
53868;BME280;41577;47.470;19.080;2023-01-26T00:31:02;100951.72;;;2.33;100.00
53868;BME280;41577;47.470;19.080;2023-01-26T00:31:15;100962.25;;;2.33;100.00
53868;BME280;41577;47.470;19.080;2023-01-26T00:31:27;100961.28;;;2.34;100.00
53868;BME280;41577;47.470;19.080;2023-01-26T00:31:38;100964.75;;;2.35;100.00
53868;BME280;41577;47.470;19.080;2023-01-26T00:31:50;100965.63;;;2.35;100.00
53868;BME280;41577;47.470;19.080;2023-01-26T00:32:01;100952.09;;;2.28;100.00
53868;BME280;41577;47.470;19.080;2023-01-26T00:32:12;100964.66;;;2.36;100.00
53868;BME280;41577;47.470;19.080;2023-01-26T00:32:25;100958.66;;;2.34;100.00
53868;BME280;41577;47.470;19.080;2023-01-26T00:32:37;100967.28;;;2.36;100.00
53868;BME280;41577;47.470;19.080;2023-01-26T00:32:48;100956.75;;;2.36;100.00
53868;BME280;41577;47.470;19.080;2023-01-26T00:33:00;100963.00;;;2.35;100.00
53868;BME280;41577;47.470;19.080;2023-01-26T00:33:11;100963.00;;;2.35;100.00
53868;BME280;41577;47.470;19.080;2023-01-26T00:33:23;100956.84;;;2.35;100.00
53868;BME280;41577;47.470;19.080;2023-01-26T00:33:36;100965.47;;;2.37;100.00
53868;BME280;41577;47.470;19.080;2023-01-26T00:33:47;100960.22;;;2.37;100.00
53868;BME280;41577;47.470;19.080;2023-01-26T00:34:01;100959.50;;;2.35;100.00
53868;BME280;41577;47.470;19.080;2023-01-26T00:34:12;100963.81;;;2.36;100.00
53868;BME280;41577;47.470;19.080;2023-01-26T00:34:26;100965.63;;;2.35;100.00
53868;BME280;41577;47.470;19.080;2023-01-26T00:34:38;100962.13;;;2.35;100.00
53868;BME280;41577;47.470;19.080;2023-01-26T00:34:57;100963.00;;;2.35;100.00
53868;BME280;41577;47.470;19.080;2023-01-26T00:35:10;100959.38;;;2.36;100.00
53868;BME280;41577;47.470;19.080;2023-01-26T00:35:21;100955.19;;;2.34;100.00
53868;BME280;41577;47.470;19.080;2023-01-26T00:35:34;100967.03;;;2.39;100.00
53868;BME280;41577;47.470;19.080;2023-01-26T00:35:53;100965.38;;;2.38;100.00
53868;BME280;41577;47.470;19.080;2023-01-26T00:36:07;100963.47;;;2.40;100.00
53868;BME280;41577;47.470;19.080;2023-01-26T00:36:18;100955.91;;;2.36;100.00
53868;BME280;41577;47.470;19.080;2023-01-26T00:36:32;100960.94;;;2.39;100.00
53868;BME280;41577;47.470;19.080;2023-01-26T00:36:43;100964.41;;;2.39;100.00
53868;BME280;41577;47.470;19.080;2023-01-26T00:36:55;100963.56;;;2.39;100.00
53868;BME280;41577;47.470;19.080;2023-01-26T00:37:07;100961.03;;;2.37;100.00
53868;BME280;41577;47.470;19.080;2023-01-26T00:37:18;100965.38;;;2.38;100.00
53868;BME280;41577;47.470;19.080;2023-01-26T00:37:30;100964.41;;;2.39;100.00
53868;BME280;41577;47.470;19.080;2023-01-26T00:37:41;100956.75;;;2.36;100.00
53868;BME280;41577;47.470;19.080;2023-01-26T00:37:54;100959.38;;;2.36;100.00
53868;BME280;41577;47.470;19.080;2023-01-26T00:38:05;100960.94;;;2.39;100.00
53868;BME280;41577;47.470;19.080;2023-01-26T00:38:18;100967.03;;;2.39;100.00
53868;BME280;41577;47.470;19.080;2023-01-26T00:38:30;100965.38;;;2.38;100.00
53868;BME280;41577;47.470;19.080;2023-01-26T00:38:43;100955.66;;;2.39;100.00
53868;BME280;41577;47.470;19.080;2023-01-26T00:38:55;100969.56;;;2.41;100.00
53868;BME280;41577;47.470;19.080;2023-01-26T00:39:13;100963.34;;;2.42;100.00
53868;BME280;41577;47.470;19.080;2023-01-26T00:39:26;100965.84;;;2.43;100.00
53868;BME280;41577;47.470;19.080;2023-01-26T00:39:38;100965.03;;;2.43;100.00
53868;BME280;41577;47.470;19.080;2023-01-26T00:39:49;100964.03;;;2.44;100.00
53868;BME280;41577;47.470;19.080;2023-01-26T00:40:00;100970.28;;;2.43;100.00
53868;BME280;41577;47.470;19.080;2023-01-26T00:40:12;100971.13;;;2.43;100.00
53868;BME280;41577;47.470;19.080;2023-01-26T00:40:23;100967.66;;;2.43;100.00
53868;BME280;41577;47.470;19.080;2023-01-26T00:40:34;100967.66;;;2.43;100.00
53868;BME280;41577;47.470;19.080;2023-01-26T00:40:46;100967.75;;;2.41;100.00
53868;BME280;41577;47.470;19.080;2023-01-26T00:40:57;100971.25;;;2.42;100.00
53868;BME280;41577;47.470;19.080;2023-01-26T00:41:08;100971.25;;;2.42;100.00
53868;BME280;41577;47.470;19.080;2023-01-26T00:41:20;100967.66;;;2.43;100.00
53868;BME280;41577;47.470;19.080;2023-01-26T00:41:33;100968.63;;;2.42;100.00
53868;BME280;41577;47.470;19.080;2023-01-26T00:41:44;100967.75;;;2.41;100.00
53868;BME280;41577;47.470;19.080;2023-01-26T00:41:56;100967.75;;;2.41;100.00
53868;BME280;41577;47.470;19.080;2023-01-26T00:42:07;100970.41;;;2.41;100.00
53868;BME280;41577;47.470;19.080;2023-01-26T00:42:24;100954.84;;;2.38;100.00
53868;BME280;41577;47.470;19.080;2023-01-26T00:42:35;100970.41;;;2.41;100.00
53868;BME280;41577;47.470;19.080;2023-01-26T00:42:46;100968.75;;;2.40;100.00
53868;BME280;41577;47.470;19.080;2023-01-26T00:42:58;100965.25;;;2.40;100.00
53868;BME280;41577;47.470;19.080;2023-01-26T00:43:10;100966.09;;;2.40;100.00
53868;BME280;41577;47.470;19.080;2023-01-26T00:43:22;100967.03;;;2.39;100.00
53868;BME280;41577;47.470;19.080;2023-01-26T00:43:35;100961.75;;;2.39;100.00
53868;BME280;41577;47.470;19.080;2023-01-26T00:43:51;100959.13;;;2.39;100.00
53868;BME280;41577;47.470;19.080;2023-01-26T00:44:04;100962.63;;;2.40;100.00
53868;BME280;41577;47.470;19.080;2023-01-26T00:44:15;100968.75;;;2.40;100.00
53868;BME280;41577;47.470;19.080;2023-01-26T00:44:27;100960.00;;;2.40;100.00
53868;BME280;41577;47.470;19.080;2023-01-26T00:44:39;100963.56;;;2.39;100.00
53868;BME280;41577;47.470;19.080;2023-01-26T00:44:50;100958.66;;;2.34;100.00
53868;BME280;41577;47.470;19.080;2023-01-26T00:45:02;100956.84;;;2.35;100.00
53868;BME280;41577;47.470;19.080;2023-01-26T00:45:13;100962.00;;;2.36;100.00
53868;BME280;41577;47.470;19.080;2023-01-26T00:45:25;100963.81;;;2.36;100.00
53868;BME280;41577;47.470;19.080;2023-01-26T00:45:36;100969.09;;;2.36;100.00
53868;BME280;41577;47.470;19.080;2023-01-26T00:45:49;100962.25;;;2.33;100.00
53868;BME280;41577;47.470;19.080;2023-01-26T00:46:04;100959.75;;;2.32;100.00
53868;BME280;41577;47.470;19.080;2023-01-26T00:46:16;100962.13;;;2.35;100.00
53868;BME280;41577;47.470;19.080;2023-01-26T00:46:27;100956.75;;;2.36;100.00
53868;BME280;41577;47.470;19.080;2023-01-26T00:46:39;100958.66;;;2.34;100.00
53868;BME280;41577;47.470;19.080;2023-01-26T00:46:55;100960.94;;;2.39;100.00
53868;BME280;41577;47.470;19.080;2023-01-26T00:47:07;100960.00;;;2.40;100.00
53868;BME280;41577;47.470;19.080;2023-01-26T00:47:18;100961.75;;;2.39;100.00
53868;BME280;41577;47.470;19.080;2023-01-26T00:47:29;100964.28;;;2.41;100.00
53868;BME280;41577;47.470;19.080;2023-01-26T00:47:40;100957.09;;;2.43;100.00
53868;BME280;41577;47.470;19.080;2023-01-26T00:47:54;100961.56;;;2.42;100.00
53868;BME280;41577;47.470;19.080;2023-01-26T00:48:06;100962.38;;;2.43;100.00
53868;BME280;41577;47.470;19.080;2023-01-26T00:48:17;100960.72;;;2.42;100.00
53868;BME280;41577;47.470;19.080;2023-01-26T00:48:30;100964.19;;;2.42;100.00
53868;BME280;41577;47.470;19.080;2023-01-26T00:48:41;100958.19;;;2.40;100.00
53868;BME280;41577;47.470;19.080;2023-01-26T00:48:53;100955.66;;;2.39;100.00
53868;BME280;41577;47.470;19.080;2023-01-26T00:49:03;100961.56;;;2.42;100.00
53868;BME280;41577;47.470;19.080;2023-01-26T00:49:19;100962.38;;;2.43;100.00
53868;BME280;41577;47.470;19.080;2023-01-26T00:49:31;100957.22;;;2.41;100.00
53868;BME280;41577;47.470;19.080;2023-01-26T00:49:45;100962.50;;;2.41;100.00
53868;BME280;41577;47.470;19.080;2023-01-26T00:49:57;100949.31;;;2.41;100.00
53868;BME280;41577;47.470;19.080;2023-01-26T00:50:12;100954.72;;;2.40;100.00
53868;BME280;41577;47.470;19.080;2023-01-26T00:50:24;100960.00;;;2.40;100.00
53868;BME280;41577;47.470;19.080;2023-01-26T00:50:36;100960.56;;;2.43;100.00
53868;BME280;41577;47.470;19.080;2023-01-26T00:50:49;100954.47;;;2.43;100.00
53868;BME280;41577;47.470;19.080;2023-01-26T00:51:00;100961.06;;;2.48;100.00
53868;BME280;41577;47.470;19.080;2023-01-26T00:51:11;100951.47;;;2.47;100.00
53868;BME280;41577;47.470;19.080;2023-01-26T00:51:23;100954.94;;;2.48;100.00
53868;BME280;41577;47.470;19.080;2023-01-26T00:51:33;100955.78;;;2.48;100.00
53868;BME280;41577;47.470;19.080;2023-01-26T00:51:45;100955.91;;;2.47;100.00
53868;BME280;41577;47.470;19.080;2023-01-26T00:51:56;100958.56;;;2.47;100.00
53868;BME280;41577;47.470;19.080;2023-01-26T00:52:07;100951.59;;;2.46;100.00
53868;BME280;41577;47.470;19.080;2023-01-26T00:52:18;100957.84;;;2.45;100.00
53868;BME280;41577;47.470;19.080;2023-01-26T00:52:31;100956.03;;;2.45;100.00
53868;BME280;41577;47.470;19.080;2023-01-26T00:52:43;100958.78;;;2.44;100.00
53868;BME280;41577;47.470;19.080;2023-01-26T00:52:54;100951.84;;;2.43;100.00
53868;BME280;41577;47.470;19.080;2023-01-26T00:53:08;100956.28;;;2.42;100.00
53868;BME280;41577;47.470;19.080;2023-01-26T00:53:19;100954.47;;;2.43;100.00
53868;BME280;41577;47.470;19.080;2023-01-26T00:53:31;100955.44;;;2.42;100.00
53868;BME280;41577;47.470;19.080;2023-01-26T00:53:42;100959.84;;;2.41;100.00
53868;BME280;41577;47.470;19.080;2023-01-26T00:53:53;100952.09;;;2.40;100.00
53868;BME280;41577;47.470;19.080;2023-01-26T00:54:04;100951.13;;;2.41;100.00
53868;BME280;41577;47.470;19.080;2023-01-26T00:54:15;100952.91;;;2.40;100.00
53868;BME280;41577;47.470;19.080;2023-01-26T00:54:28;100953.88;;;2.39;100.00
53868;BME280;41577;47.470;19.080;2023-01-26T00:54:39;100947.19;;;2.35;100.00
53868;BME280;41577;47.470;19.080;2023-01-26T00:54:50;100952.91;;;2.40;100.00
53868;BME280;41577;47.470;19.080;2023-01-26T00:55:02;100953.03;;;2.39;100.00
53868;BME280;41577;47.470;19.080;2023-01-26T00:55:13;100953.88;;;2.39;100.00
53868;BME280;41577;47.470;19.080;2023-01-26T00:55:25;100950.41;;;2.39;100.00
53868;BME280;41577;47.470;19.080;2023-01-26T00:55:36;100957.34;;;2.40;100.00
53868;BME280;41577;47.470;19.080;2023-01-26T00:55:47;100951.13;;;2.41;100.00
53868;BME280;41577;47.470;19.080;2023-01-26T00:56:00;100952.09;;;2.40;100.00
53868;BME280;41577;47.470;19.080;2023-01-26T00:56:11;100950.41;;;2.39;100.00
53868;BME280;41577;47.470;19.080;2023-01-26T00:56:23;100952.09;;;2.40;100.00
53868;BME280;41577;47.470;19.080;2023-01-26T00:56:34;100951.22;;;2.39;100.00
53868;BME280;41577;47.470;19.080;2023-01-26T00:56:45;100945.00;;;2.40;100.00
53868;BME280;41577;47.470;19.080;2023-01-26T00:56:59;100952.81;;;2.42;100.00
53868;BME280;41577;47.470;19.080;2023-01-26T00:57:10;100955.56;;;2.40;100.00
53868;BME280;41577;47.470;19.080;2023-01-26T00:57:23;100949.31;;;2.41;100.00
53868;BME280;41577;47.470;19.080;2023-01-26T00:57:34;100953.75;;;2.41;100.00
53868;BME280;41577;47.470;19.080;2023-01-26T00:57:48;100942.59;;;2.37;100.00
53868;BME280;41577;47.470;19.080;2023-01-26T00:58:01;100943.22;;;2.41;100.00
53868;BME280;41577;47.470;19.080;2023-01-26T00:58:13;100952.09;;;2.40;100.00
53868;BME280;41577;47.470;19.080;2023-01-26T00:58:24;100945.97;;;2.39;100.00
53868;BME280;41577;47.470;19.080;2023-01-26T00:58:36;100945.97;;;2.39;100.00
53868;BME280;41577;47.470;19.080;2023-01-26T00:58:47;100954.00;;;2.38;100.00
53868;BME280;41577;47.470;19.080;2023-01-26T00:58:59;100948.72;;;2.38;100.00
53868;BME280;41577;47.470;19.080;2023-01-26T00:59:11;100947.75;;;2.39;100.00
53868;BME280;41577;47.470;19.080;2023-01-26T00:59:24;100941.75;;;2.37;100.00
53868;BME280;41577;47.470;19.080;2023-01-26T00:59:35;100947.75;;;2.39;100.00
53868;BME280;41577;47.470;19.080;2023-01-26T00:59:48;100946.94;;;2.38;100.00
53868;BME280;41577;47.470;19.080;2023-01-26T00:59:59;100942.50;;;2.39;100.00
53868;BME280;41577;47.470;19.080;2023-01-26T01:00:11;100948.59;;;2.39;100.00
53868;BME280;41577;47.470;19.080;2023-01-26T01:00:22;100942.50;;;2.39;100.00
53868;BME280;41577;47.470;19.080;2023-01-26T01:00:34;100940.94;;;2.36;100.00
53868;BME280;41577;47.470;19.080;2023-01-26T01:00:45;100939.03;;;2.38;100.00
53868;BME280;41577;47.470;19.080;2023-01-26T01:00:58;100946.94;;;2.38;100.00
53868;BME280;41577;47.470;19.080;2023-01-26T01:01:09;100933.28;;;2.33;100.00
53868;BME280;41577;47.470;19.080;2023-01-26T01:01:20;100944.28;;;2.38;100.00
53868;BME280;41577;47.470;19.080;2023-01-26T01:01:32;100950.41;;;2.39;100.00
53868;BME280;41577;47.470;19.080;2023-01-26T01:01:43;100944.28;;;2.38;100.00
53868;BME280;41577;47.470;19.080;2023-01-26T01:01:54;100947.88;;;2.37;100.00
53868;BME280;41577;47.470;19.080;2023-01-26T01:02:05;100945.13;;;2.39;100.00
53868;BME280;41577;47.470;19.080;2023-01-26T01:02:16;100949.56;;;2.38;100.00